createdAt,value
2022-08-21T00:06:55.572Z,18.70
2022-08-21T00:17:03.778Z,19.00
2022-08-21T00:27:11.161Z,19.70
2022-08-21T00:37:18.529Z,19.00
2022-08-21T00:47:24.852Z,18.70
2022-08-21T00:57:38.600Z,19.20
2022-08-21T01:07:47.718Z,19.60
2022-08-21T01:17:55.029Z,20.00
2022-08-21T01:28:09.114Z,21.60
2022-08-21T01:38:16.210Z,20.50
2022-08-21T01:48:23.389Z,21.60
2022-08-21T01:58:30.523Z,21.70
2022-08-21T02:08:38.300Z,20.90
2022-08-21T02:18:46.049Z,23.10
2022-08-21T02:28:53.527Z,26.90
2022-08-21T02:39:00.740Z,27.70
2022-08-21T02:49:08.131Z,26.40
2022-08-21T02:59:15.360Z,29.90
2022-08-21T03:09:22.669Z,30.50
2022-08-21T03:19:30.056Z,28.30
2022-08-21T03:29:37.116Z,28.30
2022-08-21T03:39:45.890Z,29.10
2022-08-21T03:49:52.807Z,29.80
2022-08-21T04:10:07.738Z,25.30
2022-08-21T04:20:13.125Z,27.40
2022-08-21T04:30:28.312Z,25.50
2022-08-21T04:40:36.173Z,23.00
2022-08-21T04:50:48.849Z,23.10
2022-08-21T05:00:54.068Z,23.70
2022-08-21T05:11:01.440Z,23.30
2022-08-21T05:21:08.960Z,22.10
2022-08-21T05:31:15.264Z,23.20
2022-08-21T05:41:22.469Z,23.50
2022-08-21T05:51:29.894Z,25.20
2022-08-21T06:01:37.571Z,24.50
2022-08-21T06:11:44.756Z,24.40
2022-08-21T06:21:51.875Z,23.80
2022-08-21T06:31:59.150Z,25.50
2022-08-21T06:42:10.126Z,25.90
2022-08-21T06:52:18.367Z,24.00
2022-08-21T07:02:25.479Z,24.90
2022-08-21T07:12:32.914Z,25.40
2022-08-21T07:22:40.608Z,25.00
2022-08-21T07:32:50.364Z,25.60
2022-08-21T07:42:57.824Z,25.10
2022-08-21T07:53:05.068Z,24.20
2022-08-21T08:03:12.847Z,26.30
2022-08-21T08:13:19.244Z,18.20
2022-08-21T08:23:26.574Z,9.80
2022-08-21T08:33:32.528Z,8.80
2022-08-21T08:43:41.896Z,7.30
2022-08-21T08:53:49.773Z,6.30
2022-08-21T09:03:57.978Z,7.40
2022-08-21T09:24:20.722Z,6.70
2022-08-21T09:34:30.145Z,3.10
2022-08-21T09:44:39.740Z,3.10
2022-08-21T09:54:51.213Z,2.60
2022-08-21T10:05:02.065Z,4.00
2022-08-21T10:15:08.905Z,3.60
2022-08-21T10:25:16.523Z,3.10
2022-08-21T10:35:21.362Z,3.30
2022-08-21T10:45:30.401Z,4.00
2022-08-21T10:55:43.921Z,4.60
2022-08-21T11:05:52.648Z,6.80
2022-08-21T11:26:17.414Z,1.00
2022-08-21T11:36:22.577Z,0.90
2022-08-21T11:46:30.386Z,0.70
2022-08-21T12:06:46.575Z,1.90
2022-08-21T12:16:53.852Z,0.80
2022-08-21T12:27:15.410Z,0.60
2022-08-21T12:37:23.987Z,1.10
2022-08-21T12:47:29.750Z,1.50
2022-08-21T12:57:42.923Z,1.20
2022-08-21T13:07:52.489Z,2.40
2022-08-21T13:17:59.199Z,2.90
2022-08-21T13:28:10.433Z,4.20
2022-08-21T13:38:18.481Z,6.40
2022-08-21T13:48:28.726Z,7.00
2022-08-21T13:58:44.142Z,7.60
2022-08-21T14:08:50.761Z,8.80
2022-08-21T14:19:09.409Z,8.80
2022-08-21T14:29:18.841Z,8.30
2022-08-21T14:39:25.890Z,9.30
2022-08-21T14:49:33.709Z,9.70
2022-08-21T14:59:41.725Z,9.40
2022-08-21T15:09:48.224Z,7.50
2022-08-21T15:19:55.373Z,7.30
2022-08-21T15:30:03.560Z,8.50
2022-08-21T15:40:14.350Z,7.80
2022-08-21T15:50:22.944Z,7.20
2022-08-21T16:00:30.067Z,8.30
2022-08-21T16:10:39.042Z,7.00
2022-08-21T16:20:45.131Z,7.60
2022-08-21T16:30:53.813Z,7.10
2022-08-21T16:51:07.374Z,7.20
2022-08-21T17:01:17.797Z,9.40
2022-08-21T17:11:37.719Z,8.80
2022-08-21T17:21:45.994Z,7.20
2022-08-21T17:31:50.903Z,8.00
2022-08-21T17:42:03.110Z,7.80
2022-08-21T17:52:10.768Z,7.40
2022-08-21T18:02:20.422Z,9.00
2022-08-21T18:12:26.772Z,8.40
2022-08-21T18:22:32.997Z,7.60
2022-08-21T18:32:40.613Z,8.00
2022-08-21T18:42:55.520Z,9.70
2022-08-21T18:53:07.939Z,9.50
2022-08-21T19:03:26.604Z,9.10
2022-08-21T19:13:33.615Z,9.90
2022-08-21T19:23:42.467Z,11.30
2022-08-21T19:34:01.610Z,11.70
2022-08-21T19:44:12.609Z,13.70
2022-08-21T19:54:28.226Z,14.00
2022-08-21T20:04:37.041Z,15.00
2022-08-21T20:14:42.703Z,14.90
2022-08-21T20:24:50.609Z,15.50
2022-08-21T20:34:59.048Z,14.20
2022-08-21T20:45:08.611Z,16.40
2022-08-21T20:55:28.983Z,16.20
2022-08-21T21:05:38.168Z,17.00
2022-08-21T21:15:48.888Z,18.00
2022-08-21T21:26:05.295Z,17.50
2022-08-21T21:36:13.127Z,19.50
2022-08-21T21:46:28.027Z,17.60
2022-08-21T21:56:33.720Z,17.10
2022-08-21T22:06:51.395Z,16.60
2022-08-21T22:16:59.906Z,15.10
2022-08-21T22:27:11.629Z,14.40
2022-08-21T22:37:18.065Z,13.40
2022-08-21T22:47:33.712Z,10.90
2022-08-21T22:57:41.361Z,9.60
2022-08-21T23:07:50.149Z,9.70
2022-08-21T23:18:00.125Z,9.00
2022-08-21T23:28:11.823Z,8.60
2022-08-21T23:38:23.983Z,9.00
2022-08-21T23:48:34.512Z,8.80
2022-08-21T23:58:42.620Z,10.50
